createdAt,value
2022-08-26T00:01:56.518Z,41.65
2022-08-26T00:04:25.591Z,44.70
2022-08-26T00:06:54.840Z,53.58
2022-08-26T00:09:24.771Z,42.95
2022-08-26T00:11:54.066Z,50.85
2022-08-26T00:14:27.073Z,51.30
2022-08-26T00:16:56.923Z,46.30
2022-08-26T00:19:24.891Z,52.42
2022-08-26T00:21:52.085Z,53.25
2022-08-26T00:24:21.820Z,54.92
2022-08-26T00:26:50.232Z,61.63
2022-08-26T00:29:19.309Z,50.40
2022-08-26T00:31:48.720Z,50.97
2022-08-26T00:34:19.310Z,49.13
2022-08-26T00:39:16.515Z,55.60
2022-08-26T00:41:43.877Z,49.55
2022-08-26T00:44:11.269Z,46.55
2022-08-26T00:47:02.643Z,55.10
2022-08-26T00:49:40.855Z,50.22
2022-08-26T00:52:12.167Z,54.58
2022-08-26T00:54:46.994Z,57.25
2022-08-26T00:57:17.777Z,53.17
2022-08-26T00:59:48.364Z,53.85
2022-08-26T01:02:20.850Z,55.08
2022-08-26T01:04:56.498Z,72.32
2022-08-26T01:07:26.319Z,57.50
2022-08-26T01:09:55.658Z,52.05
2022-08-26T01:12:25.155Z,56.85
2022-08-26T01:14:52.860Z,58.08
2022-08-26T01:17:20.201Z,53.20
2022-08-26T01:19:52.495Z,58.53
2022-08-26T01:22:22.208Z,56.78
2022-08-26T01:24:55.908Z,51.90
2022-08-26T01:27:23.520Z,55.53
2022-08-26T01:29:51.790Z,54.97
2022-08-26T01:32:23.333Z,57.70
2022-08-26T01:34:51.011Z,62.88
2022-08-26T01:37:22.056Z,49.70
2022-08-26T01:39:52.022Z,55.80
2022-08-26T01:42:22.405Z,59.17
2022-08-26T01:45:22.869Z,51.90
2022-08-26T01:47:57.026Z,53.53
2022-08-26T01:50:30.204Z,57.45
2022-08-26T01:53:00.618Z,61.72
2022-08-26T01:55:32.797Z,56.83
2022-08-26T01:58:05.527Z,51.97
2022-08-26T02:00:35.534Z,56.33
2022-08-26T02:03:17.996Z,53.40
2022-08-26T02:05:48.784Z,58.00
2022-08-26T02:08:24.910Z,63.00
2022-08-26T02:10:54.098Z,61.30
2022-08-26T02:13:23.320Z,61.30
2022-08-26T02:15:52.880Z,62.03
2022-08-26T02:18:20.253Z,68.72
2022-08-26T02:20:47.883Z,60.17
2022-08-26T02:23:18.859Z,56.30
2022-08-26T02:25:53.827Z,66.65
2022-08-26T02:28:20.940Z,67.40
2022-08-26T02:30:55.526Z,67.50
2022-08-26T02:33:22.859Z,67.97
2022-08-26T02:35:49.960Z,62.60
2022-08-26T02:38:17.947Z,74.47
2022-08-26T02:40:45.063Z,76.22
2022-08-26T02:43:12.713Z,66.65
2022-08-26T02:45:41.181Z,79.95
2022-08-26T02:48:12.426Z,69.82
2022-08-26T02:50:40.346Z,82.55
2022-08-26T02:53:08.206Z,64.28
2022-08-26T02:55:36.679Z,67.60
2022-08-26T02:58:03.918Z,76.30
2022-08-26T03:00:31.612Z,73.07
2022-08-26T03:02:59.780Z,72.50
2022-08-26T03:05:27.064Z,57.97
2022-08-26T03:07:54.130Z,73.03
2022-08-26T03:10:22.359Z,58.20
2022-08-26T03:12:49.507Z,62.25
2022-08-26T03:15:20.135Z,67.10
2022-08-26T03:17:48.394Z,75.95
2022-08-26T03:20:18.304Z,59.20
2022-08-26T03:25:17.009Z,86.03
2022-08-26T03:27:45.222Z,85.40
2022-08-26T03:30:34.449Z,82.35
2022-08-26T03:33:02.606Z,74.57
2022-08-26T03:35:31.417Z,79.18
2022-08-26T03:37:58.847Z,105.70
2022-08-26T03:40:29.101Z,82.82
2022-08-26T03:42:57.015Z,80.80
2022-08-26T03:45:24.402Z,85.45
2022-08-26T03:47:52.335Z,78.75
2022-08-26T03:50:24.986Z,82.32
2022-08-26T03:52:55.187Z,88.03
2022-08-26T03:55:25.867Z,83.15
2022-08-26T03:57:54.984Z,87.32
2022-08-26T04:00:22.576Z,80.35
2022-08-26T04:02:53.358Z,82.85
2022-08-26T04:05:22.162Z,80.22
2022-08-26T04:07:52.883Z,73.88
2022-08-26T04:10:28.402Z,75.55
2022-08-26T04:12:58.940Z,85.07
2022-08-26T04:15:27.251Z,86.95
2022-08-26T04:17:55.845Z,68.05
2022-08-26T04:22:53.105Z,84.45
2022-08-26T04:25:20.478Z,79.72
2022-08-26T04:27:48.523Z,84.60
2022-08-26T04:30:16.650Z,81.68
2022-08-26T04:32:46.735Z,76.05
2022-08-26T04:35:13.894Z,84.47
2022-08-26T04:37:43.114Z,77.85
2022-08-26T04:40:10.906Z,69.25
2022-08-26T04:42:38.581Z,73.28
2022-08-26T04:45:10.356Z,66.82
2022-08-26T04:47:38.800Z,60.35
2022-08-26T04:50:07.340Z,64.47
2022-08-26T04:52:36.863Z,66.25
2022-08-26T04:55:06.673Z,74.40
2022-08-26T04:57:36.299Z,63.25
2022-08-26T05:00:10.252Z,70.13
2022-08-26T05:02:39.385Z,63.65
2022-08-26T05:05:10.325Z,55.42
2022-08-26T05:07:37.636Z,71.03
2022-08-26T05:10:05.312Z,66.40
2022-08-26T05:12:37.253Z,60.38
2022-08-26T05:15:05.893Z,57.15
2022-08-26T05:17:33.480Z,60.53
2022-08-26T05:20:01.701Z,55.75
2022-08-26T05:22:31.197Z,54.10
2022-08-26T05:24:58.316Z,43.83
2022-08-26T05:27:25.484Z,52.75
2022-08-26T05:29:57.299Z,41.22
2022-08-26T05:32:24.471Z,39.67
2022-08-26T05:34:55.873Z,43.28
2022-08-26T05:37:23.387Z,47.50
2022-08-26T05:39:51.233Z,38.53
2022-08-26T05:42:20.021Z,43.63
2022-08-26T05:44:55.528Z,38.97
2022-08-26T05:47:23.491Z,44.90
2022-08-26T05:49:51.583Z,41.63
2022-08-26T05:52:20.292Z,45.35
2022-08-26T05:54:47.844Z,39.05
2022-08-26T05:57:16.156Z,37.03
2022-08-26T05:59:45.896Z,38.88
2022-08-26T06:02:13.161Z,35.47
2022-08-26T06:04:40.832Z,40.13
2022-08-26T06:07:11.525Z,37.42
2022-08-26T06:09:40.340Z,33.55
2022-08-26T06:12:07.693Z,38.15
2022-08-26T06:14:36.110Z,36.88
2022-08-26T06:17:04.338Z,44.78
2022-08-26T06:19:32.648Z,33.60
2022-08-26T06:22:22.428Z,26.42
2022-08-26T06:25:09.916Z,30.35
2022-08-26T06:27:38.254Z,32.92
2022-08-26T06:30:06.560Z,29.80
2022-08-26T06:32:34.232Z,27.20
2022-08-26T06:35:01.590Z,26.45
2022-08-26T06:37:30.846Z,31.27
2022-08-26T06:39:58.082Z,30.65
2022-08-26T06:42:25.345Z,30.77
2022-08-26T06:44:53.890Z,37.40
2022-08-26T06:47:21.091Z,29.70
2022-08-26T06:49:48.689Z,34.03
2022-08-26T06:52:22.937Z,31.35
2022-08-26T06:54:51.827Z,31.08
2022-08-26T06:57:20.425Z,29.90
2022-08-26T06:59:48.887Z,28.00
2022-08-26T07:02:18.823Z,23.55
2022-08-26T07:04:47.725Z,25.48
2022-08-26T07:07:15.989Z,33.40
2022-08-26T07:09:43.162Z,25.95
2022-08-26T07:12:10.444Z,22.10
2022-08-26T07:14:38.469Z,23.38
2022-08-26T07:17:09.206Z,17.92
2022-08-26T07:19:39.395Z,21.83
2022-08-26T07:22:07.039Z,25.17
2022-08-26T07:24:38.307Z,18.15
2022-08-26T07:27:08.597Z,22.90
2022-08-26T07:29:37.913Z,17.50
2022-08-26T07:32:10.232Z,26.95
2022-08-26T07:34:38.893Z,32.20
2022-08-26T07:37:08.847Z,17.33
2022-08-26T07:42:08.146Z,19.67
2022-08-26T07:44:37.531Z,25.13
2022-08-26T07:47:24.041Z,17.58
2022-08-26T07:49:54.934Z,16.52
2022-08-26T07:52:26.637Z,18.80
2022-08-26T07:54:56.614Z,12.43
2022-08-26T07:57:24.786Z,17.92
2022-08-26T07:59:54.081Z,22.80
2022-08-26T08:02:23.824Z,15.40
2022-08-26T08:04:51.886Z,16.95
2022-08-26T08:07:19.303Z,13.55
2022-08-26T08:09:49.692Z,14.38
2022-08-26T08:12:18.246Z,13.43
2022-08-26T08:14:46.938Z,18.75
2022-08-26T08:19:43.452Z,14.25
2022-08-26T08:22:17.834Z,25.90
2022-08-26T08:24:49.956Z,15.00
2022-08-26T08:27:23.741Z,22.00
2022-08-26T08:29:54.991Z,22.23
2022-08-26T08:32:23.386Z,18.65
2022-08-26T08:34:50.498Z,17.95
2022-08-26T08:37:17.626Z,14.23
2022-08-26T08:39:44.916Z,20.63
2022-08-26T08:42:30.468Z,21.10
2022-08-26T08:45:01.708Z,20.80
2022-08-26T08:47:42.978Z,17.88
2022-08-26T08:53:20.468Z,18.60
2022-08-26T08:56:17.908Z,20.75
2022-08-26T08:58:51.615Z,17.58
2022-08-26T09:01:30.627Z,20.27
2022-08-26T09:04:35.339Z,12.75
2022-08-26T09:07:04.667Z,15.63
2022-08-26T09:09:41.113Z,15.13
2022-08-26T09:12:15.592Z,22.55
2022-08-26T09:14:45.828Z,13.10
2022-08-26T09:17:21.332Z,25.65
2022-08-26T09:19:59.447Z,9.98
2022-08-26T09:22:33.092Z,13.02
2022-08-26T09:25:01.676Z,10.90
2022-08-26T09:27:50.326Z,15.50
2022-08-26T09:30:30.529Z,16.52
2022-08-26T09:33:11.084Z,20.70
2022-08-26T09:35:41.171Z,14.85
2022-08-26T09:38:34.685Z,16.90
2022-08-26T09:41:06.849Z,17.80
2022-08-26T09:43:35.994Z,14.20
2022-08-26T09:46:22.667Z,9.88
2022-08-26T09:48:51.743Z,10.18
2022-08-26T09:51:23.186Z,10.60
2022-08-26T09:56:25.980Z,11.50
2022-08-26T09:58:57.749Z,21.08
2022-08-26T10:01:31.438Z,13.00
2022-08-26T10:04:26.681Z,12.15
2022-08-26T10:07:04.943Z,15.48
2022-08-26T10:09:39.200Z,14.40
2022-08-26T10:12:21.289Z,11.55
2022-08-26T10:14:52.064Z,13.32
2022-08-26T10:17:38.057Z,13.02
2022-08-26T10:20:22.496Z,10.55
2022-08-26T10:23:05.868Z,10.20
2022-08-26T10:26:08.851Z,15.57
2022-08-26T10:28:50.063Z,15.07
2022-08-26T10:31:28.270Z,10.40
2022-08-26T10:33:58.843Z,15.60
2022-08-26T10:37:14.680Z,13.63
2022-08-26T10:39:59.376Z,10.10
2022-08-26T10:42:42.011Z,13.07
2022-08-26T10:45:14.832Z,14.52
2022-08-26T10:48:07.928Z,10.82
2022-08-26T10:50:44.121Z,10.93
2022-08-26T10:53:27.431Z,10.98
2022-08-26T10:56:19.226Z,31.05
2022-08-26T10:59:16.675Z,16.30
2022-08-26T11:01:57.767Z,9.88
2022-08-26T11:04:48.446Z,15.98
2022-08-26T11:07:43.317Z,12.10
2022-08-26T11:10:21.365Z,17.48
2022-08-26T11:12:56.067Z,14.00
2022-08-26T11:15:26.831Z,11.23
2022-08-26T11:17:57.179Z,9.82
2022-08-26T11:20:44.245Z,11.18
2022-08-26T11:23:16.912Z,19.65
2022-08-26T11:25:56.172Z,17.75
2022-08-26T11:28:36.673Z,15.05
2022-08-26T11:31:08.768Z,10.95
2022-08-26T11:33:48.480Z,13.77
2022-08-26T11:36:39.758Z,11.68
2022-08-26T11:39:25.532Z,9.77
2022-08-26T11:41:55.583Z,11.15
2022-08-26T11:44:27.931Z,10.00
2022-08-26T11:47:00.966Z,9.48
2022-08-26T11:49:29.800Z,9.13
2022-08-26T11:52:20.745Z,8.52
2022-08-26T11:55:02.864Z,9.07
2022-08-26T11:57:33.108Z,9.73
2022-08-26T12:00:01.439Z,18.55
2022-08-26T12:02:29.255Z,14.93
2022-08-26T12:04:57.242Z,15.88
2022-08-26T12:07:29.396Z,12.88
2022-08-26T12:10:00.655Z,11.27
2022-08-26T12:12:38.910Z,11.63
2022-08-26T12:15:16.794Z,9.98
2022-08-26T12:17:50.482Z,12.82
2022-08-26T12:20:46.061Z,11.63
2022-08-26T12:23:41.835Z,12.55
2022-08-26T12:26:27.610Z,13.30
2022-08-26T12:29:00.123Z,12.20
2022-08-26T12:31:33.903Z,14.60
2022-08-26T12:34:04.164Z,13.45
2022-08-26T12:36:36.968Z,10.77
2022-08-26T12:39:10.967Z,11.98
2022-08-26T12:41:52.071Z,12.68
2022-08-26T12:44:53.270Z,12.55
2022-08-26T12:47:41.823Z,18.90
2022-08-26T12:50:18.896Z,9.02
2022-08-26T12:53:01.377Z,9.13
2022-08-26T12:55:45.311Z,16.95
2022-08-26T12:58:15.494Z,13.70
2022-08-26T13:00:47.495Z,15.55
2022-08-26T13:03:39.158Z,13.77
2022-08-26T13:06:24.132Z,14.77
2022-08-26T13:08:58.829Z,15.15
2022-08-26T13:11:25.834Z,10.65
2022-08-26T13:14:00.375Z,16.58
2022-08-26T13:16:29.513Z,15.30
2022-08-26T13:19:02.796Z,17.15
2022-08-26T13:21:40.995Z,10.00
2022-08-26T13:24:13.649Z,13.95
2022-08-26T13:26:42.871Z,8.27
2022-08-26T13:29:11.112Z,16.23
2022-08-26T13:31:41.105Z,15.00
2022-08-26T13:34:11.219Z,16.45
2022-08-26T13:36:38.503Z,12.10
2022-08-26T13:39:08.246Z,11.07
2022-08-26T13:41:36.353Z,10.05
2022-08-26T13:44:04.707Z,19.17
2022-08-26T13:46:32.213Z,9.73
2022-08-26T13:48:59.628Z,14.48
2022-08-26T13:51:28.119Z,13.70
2022-08-26T13:53:55.378Z,15.35
2022-08-26T13:56:23.045Z,10.70
2022-08-26T13:58:50.357Z,11.68
2022-08-26T14:01:17.574Z,12.05
2022-08-26T14:03:44.980Z,15.70
2022-08-26T14:06:12.646Z,9.35
2022-08-26T14:08:42.428Z,17.70
2022-08-26T14:11:09.970Z,14.60
2022-08-26T14:13:37.653Z,9.40
2022-08-26T14:16:09.751Z,12.30
2022-08-26T14:18:42.165Z,15.82
2022-08-26T14:21:13.592Z,10.00
2022-08-26T14:23:41.506Z,14.18
2022-08-26T14:26:23.104Z,14.10
2022-08-26T14:28:55.805Z,19.38
2022-08-26T14:31:23.903Z,9.80
2022-08-26T14:33:51.219Z,10.52
2022-08-26T14:36:33.715Z,10.65
2022-08-26T14:39:10.936Z,14.43
2022-08-26T14:41:54.084Z,9.13
2022-08-26T14:44:29.515Z,12.55
2022-08-26T14:46:57.442Z,11.10
2022-08-26T14:49:27.259Z,13.98
2022-08-26T14:54:21.710Z,8.75
2022-08-26T14:56:59.312Z,14.82
2022-08-26T14:59:32.368Z,14.40
2022-08-26T15:02:00.613Z,13.77
2022-08-26T15:04:28.706Z,10.93
2022-08-26T15:06:58.784Z,18.77
2022-08-26T15:09:28.057Z,13.27
2022-08-26T15:11:55.563Z,16.67
2022-08-26T15:14:23.577Z,21.50
2022-08-26T15:16:54.016Z,15.10
2022-08-26T15:19:23.399Z,15.10
2022-08-26T15:21:51.408Z,13.75
2022-08-26T15:24:21.642Z,30.17
2022-08-26T15:26:49.808Z,17.33
2022-08-26T15:29:17.237Z,18.67
2022-08-26T15:31:44.451Z,22.50
2022-08-26T15:34:16.391Z,14.73
2022-08-26T15:36:46.395Z,18.98
2022-08-26T15:39:15.245Z,16.50
2022-08-26T15:41:42.489Z,15.77
2022-08-26T15:44:10.228Z,16.63
2022-08-26T15:46:37.699Z,16.75
2022-08-26T15:49:07.215Z,17.27
2022-08-26T15:51:45.416Z,16.35
2022-08-26T15:54:14.083Z,14.40
2022-08-26T15:56:41.132Z,15.43
2022-08-26T15:59:11.425Z,16.42
2022-08-26T16:01:39.030Z,18.80
2022-08-26T16:04:07.404Z,20.30
2022-08-26T16:06:37.435Z,16.83
2022-08-26T16:11:32.939Z,24.98
2022-08-26T16:14:00.117Z,19.73
2022-08-26T16:16:27.211Z,18.58
2022-08-26T16:18:55.127Z,22.52
2022-08-26T16:21:24.878Z,23.33
2022-08-26T16:23:52.252Z,18.90
2022-08-26T16:26:23.994Z,23.60
2022-08-26T16:28:51.177Z,15.65
2022-08-26T16:31:18.684Z,20.75
2022-08-26T16:33:46.319Z,22.15
2022-08-26T16:36:15.381Z,29.90
2022-08-26T16:38:47.710Z,24.77
2022-08-26T16:41:14.756Z,30.23
2022-08-26T16:43:42.093Z,36.08
2022-08-26T16:46:11.380Z,31.90
2022-08-26T16:48:38.536Z,18.15
2022-08-26T16:51:06.282Z,23.13
2022-08-26T16:53:33.664Z,21.25
2022-08-26T16:56:00.787Z,18.88
2022-08-26T16:58:27.916Z,29.25
2022-08-26T17:00:56.898Z,21.77
2022-08-26T17:03:23.978Z,27.45
2022-08-26T17:05:51.012Z,27.50
2022-08-26T17:08:24.221Z,15.57
2022-08-26T17:10:55.550Z,17.65
2022-08-26T17:13:34.843Z,27.85
2022-08-26T17:16:09.859Z,23.52
2022-08-26T17:18:37.403Z,27.45
2022-08-26T17:21:08.471Z,27.13
2022-08-26T17:23:36.747Z,25.20
2022-08-26T17:26:04.053Z,24.80
2022-08-26T17:28:32.097Z,26.30
2022-08-26T17:31:01.307Z,18.67
2022-08-26T17:33:31.514Z,30.00
2022-08-26T17:35:59.685Z,26.27
2022-08-26T17:38:29.223Z,20.23
2022-08-26T17:40:57.698Z,27.02
2022-08-26T17:43:26.854Z,34.40
2022-08-26T17:45:59.060Z,32.60
2022-08-26T17:48:35.923Z,30.52
2022-08-26T17:51:16.991Z,31.42
2022-08-26T17:53:44.244Z,23.63
2022-08-26T17:56:14.090Z,25.60
2022-08-26T17:58:50.944Z,31.25
2022-08-26T18:01:19.964Z,29.27
2022-08-26T18:03:47.624Z,34.42
2022-08-26T18:06:14.916Z,39.10
2022-08-26T18:08:42.549Z,46.17
2022-08-26T18:11:16.386Z,43.47
2022-08-26T18:13:47.333Z,46.63
2022-08-26T18:16:16.485Z,37.03
2022-08-26T18:18:44.287Z,31.33
2022-08-26T18:21:15.624Z,30.08
2022-08-26T18:23:44.300Z,37.50
2022-08-26T18:26:20.870Z,27.45
2022-08-26T18:28:48.111Z,27.13
2022-08-26T18:31:16.363Z,36.55
2022-08-26T18:33:44.039Z,36.63
2022-08-26T18:36:21.766Z,37.72
2022-08-26T18:38:50.748Z,42.67
2022-08-26T18:41:20.962Z,48.72
2022-08-26T18:46:16.777Z,37.28
2022-08-26T18:48:44.106Z,28.83
2022-08-26T18:51:21.951Z,26.05
2022-08-26T18:53:49.660Z,56.38
2022-08-26T18:56:18.693Z,40.88
2022-08-26T18:58:46.488Z,44.47
2022-08-26T19:01:14.924Z,44.55
2022-08-26T19:03:42.657Z,44.33
2022-08-26T19:06:15.811Z,49.45
2022-08-26T19:08:44.624Z,40.05
2022-08-26T19:11:14.239Z,38.22
2022-08-26T19:13:45.008Z,43.17
2022-08-26T19:16:25.271Z,34.58
2022-08-26T19:18:53.676Z,34.08
2022-08-26T19:21:22.712Z,44.45
2022-08-26T19:23:50.500Z,37.25
2022-08-26T19:26:19.462Z,35.90
2022-08-26T19:28:48.272Z,29.85
2022-08-26T19:31:15.785Z,29.60
2022-08-26T19:33:45.205Z,30.25
2022-08-26T19:36:17.979Z,32.17
2022-08-26T19:38:46.133Z,29.98
2022-08-26T19:41:15.383Z,33.67
2022-08-26T19:43:42.925Z,36.70
2022-08-26T19:46:12.909Z,45.63
2022-08-26T19:48:44.063Z,49.95
2022-08-26T19:51:16.379Z,53.60
2022-08-26T19:53:44.679Z,52.13
2022-08-26T19:56:12.924Z,54.42
2022-08-26T19:58:40.936Z,50.35
2022-08-26T20:01:09.113Z,48.97
2022-08-26T20:06:23.424Z,51.20
2022-08-26T20:08:50.973Z,49.47
2022-08-26T20:11:21.043Z,48.83
2022-08-26T20:13:48.356Z,49.58
2022-08-26T20:16:16.867Z,48.17
2022-08-26T20:19:03.456Z,42.90
2022-08-26T20:21:35.606Z,41.00
2022-08-26T20:24:07.268Z,55.15
2022-08-26T20:26:36.868Z,38.80
2022-08-26T20:29:05.914Z,49.35
2022-08-26T20:31:35.191Z,50.08
2022-08-26T20:34:03.379Z,84.75
2022-08-26T20:36:30.587Z,52.03
2022-08-26T20:38:58.436Z,62.10
2022-08-26T20:41:26.108Z,46.35
2022-08-26T20:43:54.257Z,55.15
2022-08-26T20:46:24.691Z,55.78
2022-08-26T20:48:53.657Z,37.08
2022-08-26T20:51:22.965Z,43.95
2022-08-26T20:53:51.191Z,50.08
2022-08-26T20:56:25.092Z,57.63
2022-08-26T20:58:54.435Z,47.88
2022-08-26T21:01:25.037Z,41.73
2022-08-26T21:03:53.923Z,46.28
2022-08-26T21:06:21.476Z,57.72
2022-08-26T21:08:50.319Z,46.97
2022-08-26T21:11:18.300Z,48.38
2022-08-26T21:14:04.441Z,43.38
2022-08-26T21:16:37.797Z,46.60
2022-08-26T21:19:06.807Z,51.47
2022-08-26T21:21:34.382Z,47.50
2022-08-26T21:24:01.604Z,36.63
2022-08-26T21:26:29.146Z,39.38
2022-08-26T21:28:56.526Z,39.83
2022-08-26T21:31:25.052Z,44.97
2022-08-26T21:33:52.651Z,44.47
2022-08-26T21:36:20.259Z,47.95
2022-08-26T21:38:47.652Z,50.45
2022-08-26T21:41:22.219Z,59.60
2022-08-26T21:43:50.882Z,42.28
2022-08-26T21:46:22.071Z,36.63
2022-08-26T21:48:56.175Z,37.28
2022-08-26T21:51:25.408Z,41.10
2022-08-26T21:53:53.095Z,39.70
2022-08-26T21:56:22.263Z,37.03
2022-08-26T21:58:50.047Z,33.42
2022-08-26T22:01:21.897Z,51.85
2022-08-26T22:03:50.049Z,38.37
2022-08-26T22:06:19.734Z,42.88
2022-08-26T22:08:46.957Z,55.08
2022-08-26T22:11:15.633Z,56.95
2022-08-26T22:13:43.812Z,48.33
2022-08-26T22:16:11.579Z,51.85
2022-08-26T22:18:39.921Z,46.03
2022-08-26T22:21:09.856Z,41.30
2022-08-26T22:23:38.501Z,49.42
2022-08-26T22:26:07.727Z,46.45
2022-08-26T22:28:35.590Z,50.08
2022-08-26T22:31:02.959Z,45.63
2022-08-26T22:33:30.143Z,44.30
2022-08-26T22:35:57.300Z,41.20
2022-08-26T22:38:24.952Z,41.50
2022-08-26T22:40:57.918Z,40.75
2022-08-26T22:43:26.484Z,39.80
2022-08-26T22:45:54.526Z,38.95
2022-08-26T22:48:24.565Z,36.65
2022-08-26T22:51:00.004Z,42.13
2022-08-26T22:53:27.854Z,45.97
2022-08-26T22:55:54.993Z,40.72
2022-08-26T22:58:30.198Z,40.88
2022-08-26T23:00:59.520Z,43.33
2022-08-26T23:03:27.706Z,46.17
2022-08-26T23:05:55.997Z,48.90
2022-08-26T23:08:24.782Z,52.20
2022-08-26T23:10:52.609Z,42.80
2022-08-26T23:13:20.379Z,40.78
2022-08-26T23:15:47.683Z,39.90
2022-08-26T23:18:15.293Z,41.42
2022-08-26T23:20:42.856Z,40.42
2022-08-26T23:23:09.993Z,41.05
2022-08-26T23:25:37.123Z,44.80
2022-08-26T23:28:04.620Z,45.63
2022-08-26T23:30:34.488Z,59.13
2022-08-26T23:33:01.882Z,52.40
2022-08-26T23:35:29.239Z,48.58
2022-08-26T23:37:57.801Z,46.47
2022-08-26T23:40:30.202Z,43.90
2022-08-26T23:42:58.654Z,49.25
2022-08-26T23:45:27.233Z,50.25
2022-08-26T23:47:54.971Z,54.00
2022-08-26T23:50:44.910Z,49.25
2022-08-26T23:53:19.412Z,49.33
2022-08-26T23:55:49.130Z,45.35
2022-08-26T23:58:18.172Z,49.90
